Time;durP1;ratioP1;P1;durP2;ratioP2;P2;SDS_P1;SDS_P2;PMS_P1;PMS_P2;Temp;Humidity;BMP_temperature;BMP_pressure;BME280_temperature;BME280_humidity;BME280_pressure;Samples;Min_cycle;Max_cycle;Signal;HPM_P1;HPM_P2
2022/08/10 00:00:45;;;;;;;5.65;3.60;;;18.00;99.90;;;;;;2603222;54;20561;31
2022/08/10 00:03:20;;;;;;;8.02;4.05;;;17.90;99.90;;;;;;2602993;54;20133;31
2022/08/10 00:05:56;;;;;;;7.20;4.10;;;17.80;99.90;;;;;;2603684;54;20060;31
2022/08/10 00:08:31;;;;;;;7.15;3.90;;;17.80;99.90;;;;;;2604052;54;20080;31
2022/08/10 00:11:10;;;;;;;8.53;3.93;;;17.70;99.90;;;;;;2603943;54;20089;31
2022/08/10 00:13:50;;;;;;;6.80;3.85;;;17.70;99.90;;;;;;2604025;54;20060;31
2022/08/10 00:16:24;;;;;;;8.25;3.70;;;17.70;99.90;;;;;;2603923;54;20865;31
2022/08/10 00:18:59;;;;;;;5.60;3.50;;;17.60;99.90;;;;;;2603887;54;20133;31
2022/08/10 00:21:33;;;;;;;7.00;3.57;;;17.60;99.90;;;;;;2603825;54;20081;31
2022/08/10 00:24:10;;;;;;;11.02;3.95;;;17.60;99.90;;;;;;2603932;54;20046;31
2022/08/10 00:26:47;;;;;;;5.57;3.33;;;17.60;99.90;;;;;;2603863;54;20622;31
2022/08/10 00:32:12;;;;;;;7.03;3.47;;;17.60;99.90;;;;;;2622254;46;20103;31
2022/08/10 00:34:48;;;;;;;7.80;3.97;;;17.60;99.90;;;;;;2603733;54;20096;31
2022/08/10 00:37:22;;;;;;;6.55;3.95;;;17.50;99.90;;;;;;2622183;46;20030;31
2022/08/10 00:39:58;;;;;;;5.28;3.35;;;17.50;99.90;;;;;;2622476;46;20927;31
2022/08/10 00:42:35;;;;;;;5.47;3.53;;;17.50;99.90;;;;;;2622023;46;20968;31
2022/08/10 00:45:10;;;;;;;6.40;4.00;;;17.40;99.90;;;;;;2603785;54;20081;31
2022/08/10 00:47:46;;;;;;;4.50;3.50;;;17.40;99.90;;;;;;2603556;54;20030;31
2022/08/10 00:50:20;;;;;;;6.10;3.70;;;17.30;99.90;;;;;;2622404;46;20045;31
2022/08/10 00:52:55;;;;;;;5.95;3.30;;;17.30;99.90;;;;;;2622374;46;20101;31
2022/08/10 00:55:33;;;;;;;5.90;3.60;;;17.30;99.90;;;;;;2604032;54;20037;31
2022/08/10 00:58:31;;;;;;;5.13;3.57;;;17.20;99.90;;;;;;2603832;54;20619;31
2022/08/10 01:01:07;;;;;;;5.40;3.50;;;17.10;99.90;;;;;;2603714;54;20262;31
2022/08/10 01:04:03;;;;;;;4.97;4.47;;;17.10;99.90;;;;;;2603914;54;20054;31
2022/08/10 01:07:08;;;;;;;7.68;3.75;;;17.00;99.90;;;;;;2603734;54;20073;31
2022/08/10 01:09:51;;;;;;;6.88;4.18;;;17.00;99.90;;;;;;2603777;54;20034;31
2022/08/10 01:12:34;;;;;;;5.65;4.10;;;16.90;99.90;;;;;;2622121;46;20929;31
2022/08/10 01:15:26;;;;;;;9.05;4.20;;;16.90;99.90;;;;;;2603701;54;20141;31
2022/08/10 01:18:04;;;;;;;6.78;4.78;;;16.80;99.90;;;;;;2603504;54;20844;31
2022/08/10 01:23:35;;;;;;;7.20;5.25;;;16.70;99.90;;;;;;2603594;54;21166;31
2022/08/10 01:26:30;;;;;;;8.55;5.28;;;16.70;99.90;;;;;;2603549;54;20038;31
2022/08/10 01:29:31;;;;;;;5.97;3.63;;;16.70;99.90;;;;;;2603960;54;20046;31
2022/08/10 01:32:06;;;;;;;4.68;3.72;;;16.60;99.90;;;;;;2603777;54;20030;31
2022/08/10 01:34:43;;;;;;;;;;;16.60;99.90;;;;;;2603825;54;20034;31
2022/08/10 01:37:19;;;;;;;8.20;4.63;;;16.50;99.90;;;;;;2603555;54;19935;31
2022/08/10 01:39:53;;;;;;;7.65;4.15;;;16.50;99.90;;;;;;2603682;54;21899;31
2022/08/10 01:42:28;;;;;;;5.33;3.60;;;16.40;99.90;;;;;;2603859;54;20050;31
2022/08/10 01:45:07;;;;;;;4.40;3.57;;;16.40;99.90;;;;;;2622098;46;20061;31
2022/08/10 01:50:36;;;;;;;5.10;4.07;;;16.30;99.90;;;;;;2603645;54;20026;31
2022/08/10 01:53:31;;;;;;;5.45;4.38;;;16.30;99.90;;;;;;2702297;39;21022;31
2022/08/10 01:56:15;;;;;;;6.63;3.95;;;16.20;99.90;;;;;;2603536;54;20133;31
2022/08/10 01:58:51;;;;;;;5.30;3.45;;;16.20;99.90;;;;;;2603547;54;20030;31
2022/08/10 02:01:30;;;;;;;4.97;3.90;;;16.20;99.90;;;;;;2603610;54;20882;31
2022/08/10 02:04:07;;;;;;;7.50;3.42;;;16.20;99.90;;;;;;2603762;54;20061;31
2022/08/10 02:06:45;;;;;;;6.10;3.45;;;16.10;99.90;;;;;;2603557;54;20468;31
2022/08/10 02:11:53;;;;;;;5.38;3.80;;;16.10;99.90;;;;;;2603492;54;20861;31
2022/08/10 02:14:43;;;;;;;4.80;4.07;;;16.00;99.90;;;;;;2603677;54;20885;31
2022/08/10 02:17:21;;;;;;;7.93;4.32;;;16.00;99.90;;;;;;2603303;54;20061;31
2022/08/10 02:20:18;;;;;;;4.70;3.60;;;15.90;99.90;;;;;;2603472;54;20022;31
2022/08/10 02:22:55;;;;;;;4.80;3.75;;;15.90;99.90;;;;;;2603474;54;20026;31
2022/08/10 02:25:29;;;;;;;9.15;4.15;;;15.80;99.90;;;;;;2603445;54;20125;31
2022/08/10 02:28:17;;;;;;;9.50;4.40;;;15.80;99.90;;;;;;2603196;54;20051;31
2022/08/10 02:31:05;;;;;;;4.30;3.58;;;15.80;99.90;;;;;;2603419;54;20763;31
2022/08/10 02:33:48;;;;;;;6.72;4.07;;;15.80;99.90;;;;;;2603212;54;20026;31
2022/08/10 02:36:31;;;;;;;;;;;15.70;99.90;;;;;;2603498;54;20561;31
2022/08/10 02:39:07;;;;;;;7.95;4.35;;;15.70;99.90;;;;;;2603132;54;19943;31
2022/08/10 02:41:44;;;;;;;5.35;3.55;;;15.60;99.90;;;;;;2603686;54;20565;31
2022/08/10 02:44:52;;;;;;;4.30;3.28;;;15.60;99.90;;;;;;2603492;54;20849;31
2022/08/10 02:47:47;;;;;;;6.30;4.25;;;15.60;99.90;;;;;;2603129;54;20899;31
2022/08/10 02:50:30;;;;;;;7.80;5.25;;;15.40;99.90;;;;;;2621743;46;20913;31
2022/08/10 02:53:06;;;;;;;5.33;4.20;;;15.40;99.90;;;;;;2701987;39;20566;31
2022/08/10 02:56:05;;;;;;;7.23;4.80;;;15.40;99.90;;;;;;2603431;54;20061;31
2022/08/10 02:58:40;;;;;;;5.40;4.18;;;15.30;99.90;;;;;;2701659;39;20490;31
2022/08/10 03:01:18;;;;;;;5.10;3.70;;;15.30;99.90;;;;;;2603644;54;20050;31
2022/08/10 03:03:56;;;;;;;3.95;3.05;;;15.30;99.90;;;;;;2701554;39;20512;31
2022/08/10 03:06:36;;;;;;;4.32;3.42;;;15.30;99.90;;;;;;2603502;54;20864;31
2022/08/10 03:09:11;;;;;;;7.25;4.47;;;15.30;99.90;;;;;;2603279;54;20750;31
2022/08/10 03:11:46;;;;;;;7.60;4.50;;;15.20;99.90;;;;;;2621428;46;20089;31
2022/08/10 03:14:41;;;;;;;5.78;3.92;;;15.20;99.90;;;;;;2603253;54;20824;31
2022/08/10 03:17:15;;;;;;;6.18;3.50;;;15.20;99.90;;;;;;2603221;54;20026;31
2022/08/10 03:19:53;;;;;;;8.65;4.80;;;15.20;99.90;;;;;;2701716;39;20702;31
2022/08/10 03:22:47;;;;;;;5.63;4.35;;;15.10;99.90;;;;;;2603259;54;20036;31
2022/08/10 03:25:25;;;;;;;5.10;3.70;;;15.00;99.90;;;;;;2603231;54;20038;31
2022/08/10 03:28:00;;;;;;;7.78;3.90;;;15.00;99.90;;;;;;2621690;47;20877;31
2022/08/10 03:30:35;;;;;;;8.40;4.40;;;15.00;99.90;;;;;;2603359;54;20585;31
2022/08/10 03:33:10;;;;;;;5.88;4.68;;;15.00;99.90;;;;;;2603524;54;20026;31
2022/08/10 03:35:44;;;;;;;11.00;5.45;;;15.00;99.90;;;;;;2603307;54;20038;31
2022/08/10 03:38:39;;;;;;;5.32;4.13;;;14.90;99.90;;;;;;2621517;47;20914;31
2022/08/10 03:41:16;;;;;;;8.27;4.60;;;14.90;99.90;;;;;;2603784;54;20089;31
2022/08/10 03:43:52;;;;;;;7.05;4.55;;;14.90;99.90;;;;;;2622222;46;20141;31
2022/08/10 03:46:27;;;;;;;4.88;3.85;;;14.90;99.90;;;;;;2603881;54;20009;31
2022/08/10 03:49:04;;;;;;;9.70;5.75;;;14.90;99.90;;;;;;2603926;54;20026;31
2022/08/10 03:51:39;;;;;;;7.47;4.28;;;14.90;99.90;;;;;;2603843;54;20177;31
2022/08/10 03:54:14;;;;;;;7.78;5.18;;;14.80;99.90;;;;;;2603917;54;20026;31
2022/08/10 03:56:51;;;;;;;9.95;5.90;;;14.80;99.90;;;;;;2604000;54;20170;31
2022/08/10 03:59:26;;;;;;;7.17;4.57;;;14.80;99.90;;;;;;2603813;54;20032;31
2022/08/10 04:02:00;;;;;;;9.20;5.30;;;14.90;99.90;;;;;;2603881;54;20125;31
2022/08/10 04:04:54;;;;;;;10.40;5.50;;;14.90;99.90;;;;;;2702619;39;20473;31
2022/08/10 04:07:34;;;;;;;8.82;5.68;;;15.10;99.90;;;;;;2603917;54;20038;31
2022/08/10 04:10:10;;;;;;;9.18;5.72;;;15.10;99.90;;;;;;2603914;54;20026;31
2022/08/10 04:12:49;;;;;;;6.05;4.78;;;15.20;99.90;;;;;;2603949;54;20955;31
2022/08/10 04:15:24;;;;;;;7.05;5.45;;;15.30;99.90;;;;;;2603900;54;20112;31
2022/08/10 04:17:58;;;;;;;7.50;5.50;;;15.50;99.90;;;;;;2603807;54;20085;31
2022/08/10 04:20:41;;;;;;;14.20;6.32;;;15.50;99.90;;;;;;2603720;54;20077;31
2022/08/10 04:23:17;;;;;;;10.15;5.75;;;15.70;99.90;;;;;;2603875;54;20038;31
2022/08/10 04:25:52;;;;;;;6.30;5.00;;;15.90;99.90;;;;;;2604055;54;20034;31
2022/08/10 04:28:29;;;;;;;10.93;5.75;;;16.00;99.90;;;;;;2622354;46;20054;31
2022/08/10 04:31:03;;;;;;;8.97;6.60;;;16.20;99.90;;;;;;2603872;54;20116;31
2022/08/10 04:33:38;;;;;;;7.28;5.50;;;16.40;99.90;;;;;;2622544;46;20158;31
2022/08/10 04:36:13;;;;;;;9.05;6.88;;;16.60;99.90;;;;;;2604004;54;20107;31
2022/08/10 04:38:48;;;;;;;9.00;6.45;;;16.70;99.90;;;;;;2604006;54;20842;31
2022/08/10 04:41:23;;;;;;;7.53;6.60;;;16.90;99.90;;;;;;2603801;54;20933;31
2022/08/10 04:44:00;;;;;;;9.90;6.78;;;17.00;99.90;;;;;;2604014;54;20890;31
2022/08/10 04:46:36;;;;;;;11.75;7.20;;;17.20;99.90;;;;;;2603963;54;20477;31
2022/08/10 04:49:31;;;;;;;10.70;6.72;;;17.40;99.90;;;;;;2621989;46;20101;31
2022/08/10 04:52:25;;;;;;;7.25;5.70;;;17.60;99.90;;;;;;2603505;54;20037;31
2022/08/10 04:55:00;;;;;;;7.43;5.35;;;17.80;99.90;;;;;;2603636;54;20049;31
2022/08/10 04:57:35;;;;;;;7.78;4.50;;;18.10;99.90;;;;;;2622244;46;20030;31
2022/08/10 05:00:16;;;;;;;5.97;4.25;;;18.40;99.90;;;;;;2603625;54;20116;31
2022/08/10 05:02:53;;;;;;;6.70;4.85;;;18.70;99.90;;;;;;2603981;54;20057;31
2022/08/10 05:05:27;;;;;;;10.35;3.95;;;19.00;99.90;;;;;;2603695;54;20050;31
2022/08/10 05:08:03;;;;;;;7.63;4.53;;;19.10;99.90;;;;;;2603683;54;20191;31
2022/08/10 05:10:38;;;;;;;8.13;4.57;;;19.40;99.90;;;;;;2622221;46;20564;31
2022/08/10 05:13:12;;;;;;;5.35;4.07;;;19.70;99.90;;;;;;2603802;54;20912;31
2022/08/10 05:15:52;;;;;;;4.93;3.80;;;19.80;99.90;;;;;;2603746;54;20096;31
2022/08/10 05:18:27;;;;;;;4.70;3.38;;;20.00;99.90;;;;;;2603626;54;20885;31
2022/08/10 05:21:01;;;;;;;10.10;3.85;;;20.20;99.90;;;;;;2603763;54;20034;31
2022/08/10 05:23:36;;;;;;;5.20;3.55;;;20.40;99.90;;;;;;2603683;54;20127;31
2022/08/10 05:26:11;;;;;;;5.13;3.75;;;20.60;99.90;;;;;;2702057;39;20477;31
2022/08/10 05:28:45;;;;;;;5.63;3.63;;;20.80;99.90;;;;;;2603810;54;20026;31
2022/08/10 05:31:23;;;;;;;7.15;3.58;;;20.90;99.90;;;;;;2603647;54;20921;31
2022/08/10 05:33:58;;;;;;;6.90;3.67;;;21.10;99.90;;;;;;2603964;54;20034;31
2022/08/10 05:36:33;;;;;;;6.10;4.05;;;21.20;99.90;;;;;;2603831;54;20893;31
2022/08/10 05:39:07;;;;;;;5.35;3.97;;;21.40;99.90;;;;;;2622082;46;20828;31
2022/08/10 05:41:42;;;;;;;7.28;3.78;;;21.40;99.90;;;;;;2602949;54;20034;31
2022/08/10 05:44:23;;;;;;;7.22;3.30;;;21.50;99.90;;;;;;2603509;54;20811;31
2022/08/10 05:47:01;;;;;;;4.88;3.05;;;21.60;99.90;;;;;;2603501;54;20651;31
2022/08/10 05:49:36;;;;;;;4.32;2.90;;;21.70;99.90;;;;;;2603567;54;20037;31
2022/08/10 05:52:13;;;;;;;5.00;3.13;;;21.90;99.90;;;;;;2603528;54;20030;31
2022/08/10 05:54:48;;;;;;;4.85;3.10;;;22.00;99.90;;;;;;2603402;54;20735;31
2022/08/10 05:57:23;;;;;;;4.22;3.30;;;22.20;99.90;;;;;;2603540;54;20017;31
2022/08/10 06:00:01;;;;;;;6.82;3.42;;;22.40;99.90;;;;;;2603525;54;20042;31
2022/08/10 06:03:01;;;;;;;6.85;3.15;;;22.60;99.90;;;;;;2603425;54;20830;31
2022/08/10 06:05:37;;;;;;;9.35;3.35;;;22.80;99.90;;;;;;2603738;54;20859;31
2022/08/10 06:08:16;;;;;;;6.35;3.38;;;22.90;99.90;;;;;;2603368;54;20027;31
2022/08/10 06:10:50;;;;;;;6.03;3.35;;;23.10;99.90;;;;;;2702160;39;20531;31
2022/08/10 06:16:50;;;;;;;8.18;3.40;;;23.40;99.90;;;;;;2603379;54;20026;31
2022/08/10 06:19:30;;;;;;;4.68;3.10;;;23.50;99.90;;;;;;2603430;54;20027;31
2022/08/10 06:22:07;;;;;;;4.13;2.75;;;23.70;99.90;;;;;;2603387;54;21395;31
2022/08/10 06:24:42;;;;;;;7.13;3.60;;;23.90;99.90;;;;;;2603476;54;20076;31
2022/08/10 06:27:37;;;;;;;5.00;3.25;;;24.10;99.90;;;;;;2621737;46;20057;31
2022/08/10 06:30:13;;;;;;;4.18;3.03;;;24.30;99.90;;;;;;2603650;54;20836;31
2022/08/10 06:32:54;;;;;;;7.15;3.42;;;24.40;99.90;;;;;;2603537;54;20037;31
2022/08/10 06:35:34;;;;;;;6.70;3.25;;;24.60;99.90;;;;;;2622040;46;20031;31
2022/08/10 06:38:11;;;;;;;5.00;2.90;;;24.70;99.90;;;;;;2603597;54;20026;31
2022/08/10 06:40:47;;;;;;;5.28;2.72;;;24.90;99.90;;;;;;2603380;54;20031;31
2022/08/10 06:43:22;;;;;;;9.93;3.15;;;25.20;99.90;;;;;;2720838;39;20526;31
2022/08/10 06:46:02;;;;;;;6.13;2.85;;;25.40;99.90;;;;;;2603421;54;20903;31
2022/08/10 06:48:43;;;;;;;4.73;2.97;;;25.70;99.90;;;;;;2603685;54;20057;31
2022/08/10 06:51:27;;;;;;;6.95;3.03;;;25.80;99.90;;;;;;2621874;46;20778;31
2022/08/10 06:54:03;;;;;;;5.83;3.10;;;26.00;99.90;;;;;;2603355;54;20026;31
2022/08/10 06:56:41;;;;;;;8.98;3.30;;;26.20;99.90;;;;;;2603300;54;20053;31
2022/08/10 06:59:35;;;;;;;6.85;3.20;;;26.40;99.90;;;;;;2603479;54;20839;31
2022/08/10 07:02:10;;;;;;;5.65;2.88;;;26.50;99.90;;;;;;2603236;54;20896;31
2022/08/10 07:04:46;;;;;;;4.60;3.20;;;26.60;99.90;;;;;;2621803;46;20038;31
2022/08/10 07:07:25;;;;;;;5.40;2.90;;;26.70;99.90;;;;;;2603248;54;20988;31
2022/08/10 07:10:02;;;;;;;3.95;3.00;;;26.90;99.90;;;;;;2622083;46;20097;31
2022/08/10 07:12:40;;;;;;;6.20;3.20;;;26.90;99.90;;;;;;2603662;54;20695;31
2022/08/10 07:15:16;;;;;;;5.43;2.85;;;27.10;99.90;;;;;;2602972;54;20811;31
2022/08/10 07:17:50;;;;;;;;;;;27.20;99.90;;;;;;2603626;54;20026;31
2022/08/10 07:20:25;;;;;;;7.97;2.92;;;27.60;99.90;;;;;;2603161;54;19957;31
2022/08/10 07:23:03;;;;;;;11.25;2.95;;;27.80;99.90;;;;;;2720580;39;20485;31
2022/08/10 07:25:57;;;;;;;10.38;2.80;;;27.80;99.90;;;;;;2603297;54;20038;31
2022/08/10 07:28:32;;;;;;;9.80;2.75;;;27.90;99.90;;;;;;2701750;39;21497;31
2022/08/10 07:31:07;;;;;;;5.00;2.65;;;27.90;99.90;;;;;;2621670;47;20089;31
2022/08/10 07:34:05;;;;;;;5.40;2.80;;;28.00;99.90;;;;;;2603152;54;20027;31
2022/08/10 07:36:38;;;;;;;3.83;2.25;;;28.20;99.90;;;;;;2603245;54;21381;31
2022/08/10 07:39:16;;;;;;;6.22;2.80;;;28.30;99.90;;;;;;2603293;54;20034;31
2022/08/10 07:42:11;;;;;;;5.80;2.80;;;28.30;99.90;;;;;;2603252;54;20026;31
2022/08/10 07:44:47;;;;;;;3.75;2.60;;;28.40;99.90;;;;;;2603175;54;20050;31
2022/08/10 07:47:24;;;;;;;4.93;2.80;;;28.50;99.90;;;;;;2603352;54;21275;31
2022/08/10 07:50:21;;;;;;;6.53;2.37;;;28.50;99.90;;;;;;2603170;54;21354;31
2022/08/10 07:52:57;;;;;;;3.97;2.45;;;28.60;99.90;;;;;;2603138;54;20022;31
2022/08/10 07:55:34;;;;;;;4.38;2.78;;;28.60;99.90;;;;;;2603090;54;20077;31
2022/08/10 07:58:30;;;;;;;4.65;2.70;;;28.60;99.90;;;;;;2621408;47;20026;31
2022/08/10 08:01:05;;;;;;;8.30;2.55;;;28.50;99.90;;;;;;2603338;54;20037;31
2022/08/10 08:03:41;;;;;;;4.70;2.85;;;28.80;99.40;;;;;;2603287;54;20061;31
2022/08/10 08:06:16;;;;;;;7.57;2.50;;;28.80;99.20;;;;;;2603252;54;20089;31
2022/08/10 08:08:50;;;;;;;5.57;2.35;;;28.90;99.50;;;;;;2603022;54;20030;31
2022/08/10 08:11:27;;;;;;;6.90;2.20;;;29.00;99.50;;;;;;2603309;54;19935;31
2022/08/10 08:14:01;;;;;;;8.88;3.00;;;29.20;98.70;;;;;;2603304;54;20023;31
2022/08/10 08:16:36;;;;;;;5.10;2.53;;;29.30;98.50;;;;;;2603136;54;20030;31
2022/08/10 08:19:11;;;;;;;;;;;29.40;98.10;;;;;;2603285;54;20037;31
2022/08/10 08:22:06;;;;;;;3.75;2.00;;;29.40;97.40;;;;;;2621097;47;19937;31
2022/08/10 08:25:01;;;;;;;5.97;2.28;;;29.60;97.10;;;;;;2603125;54;20093;31
2022/08/10 08:27:39;;;;;;;15.73;2.53;;;29.60;96.40;;;;;;2603845;54;20026;31
2022/08/10 08:30:21;;;;;;;8.38;2.20;;;29.50;95.90;;;;;;2702811;39;20446;31
2022/08/10 08:33:01;;;;;;;14.18;2.40;;;29.50;96.30;;;;;;2604228;54;20038;31
2022/08/10 08:35:36;;;;;;;4.53;2.03;;;29.60;96.60;;;;;;2604087;54;20026;31
2022/08/10 08:38:11;;;;;;;8.02;2.15;;;29.80;96.50;;;;;;2610416;46;20026;31
2022/08/10 08:41:09;;;;;;;2.85;1.80;;;30.00;95.80;;;;;;2603765;54;20039;31
2022/08/10 08:43:55;;;;;;;4.93;2.33;;;30.10;95.40;;;;;;2622188;46;20055;31
2022/08/10 08:46:32;;;;;;;;;;;30.30;93.90;;;;;;2702735;39;21189;31
2022/08/10 08:49:42;;;;;;;6.15;2.20;;;30.20;94.70;;;;;;2603728;54;19941;31
2022/08/10 08:52:41;;;;;;;4.65;2.20;;;30.20;93.80;;;;;;2622596;46;20037;31
2022/08/10 08:55:22;;;;;;;3.90;1.87;;;30.00;93.30;;;;;;2603618;54;20026;31
2022/08/10 08:58:32;;;;;;;2.73;1.73;;;30.10;94.00;;;;;;2603748;54;20933;31
2022/08/10 09:01:20;;;;;;;4.78;1.88;;;30.20;93.90;;;;;;2603768;54;20867;31
2022/08/10 09:04:07;;;;;;;2.80;1.85;;;30.30;93.80;;;;;;2603973;54;20015;31
2022/08/10 09:07:13;;;;;;;3.17;1.92;;;30.30;93.50;;;;;;2603988;54;20035;31
2022/08/10 09:10:07;;;;;;;4.72;2.08;;;30.50;93.20;;;;;;2603654;54;20023;31
2022/08/10 09:12:46;;;;;;;3.92;2.20;;;30.50;93.50;;;;;;2621422;46;20057;31
2022/08/10 09:15:29;;;;;;;5.88;2.00;;;30.80;93.60;;;;;;2603832;54;20030;31
2022/08/10 09:18:21;;;;;;;5.25;1.95;;;31.00;93.40;;;;;;2603831;54;20077;31
2022/08/10 09:21:02;;;;;;;2.60;1.38;;;31.10;92.70;;;;;;2603455;54;20800;31
2022/08/10 09:23:38;;;;;;;2.85;1.33;;;31.10;91.10;;;;;;2603646;54;20046;31
2022/08/10 09:26:37;;;;;;;3.47;1.23;;;31.20;91.00;;;;;;2603659;54;20923;31
2022/08/10 09:29:16;;;;;;;2.75;1.58;;;31.20;89.60;;;;;;2603870;54;21178;31
2022/08/10 09:32:01;;;;;;;3.15;1.50;;;31.00;89.50;;;;;;2603639;54;20161;31
2022/08/10 09:35:13;;;;;;;1.58;1.20;;;30.90;89.30;;;;;;2603681;54;21860;31
2022/08/10 09:38:07;;;;;;;4.45;1.40;;;31.00;88.10;;;;;;2621481;46;20023;31
2022/08/10 09:40:47;;;;;;;5.25;1.20;;;31.00;88.70;;;;;;2603022;54;20890;31
2022/08/10 09:43:46;;;;;;;2.97;1.10;;;31.00;87.70;;;;;;2613710;31;20357;31
2022/08/10 09:46:34;;;;;;;3.78;1.05;;;31.00;87.30;;;;;;2602017;54;20877;31
2022/08/10 09:49:18;;;;;;;3.20;1.20;;;31.00;86.60;;;;;;2602072;54;20053;31
2022/08/10 09:52:11;;;;;;;3.60;1.50;;;30.90;86.00;;;;;;2613978;46;20077;31
2022/08/10 09:54:56;;;;;;;2.25;1.50;;;30.90;86.80;;;;;;2602154;54;20065;31
2022/08/10 09:57:33;;;;;;;3.10;1.40;;;30.80;86.70;;;;;;2603750;54;20054;31
2022/08/10 10:00:21;;;;;;;4.72;1.55;;;30.80;86.40;;;;;;2603528;54;20117;31
2022/08/10 10:03:05;;;;;;;4.43;1.40;;;30.80;87.60;;;;;;2603762;54;20899;31
2022/08/10 10:05:48;;;;;;;4.00;1.70;;;30.80;86.10;;;;;;2603474;54;20972;31
2022/08/10 10:08:31;;;;;;;3.55;1.40;;;30.80;85.80;;;;;;2603754;54;20893;31
2022/08/10 10:11:12;;;;;;;3.88;1.60;;;30.80;84.90;;;;;;2702311;39;20900;31
2022/08/10 10:13:58;;;;;;;3.65;1.30;;;30.70;84.40;;;;;;2603509;54;20573;31
2022/08/10 10:16:47;;;;;;;5.57;1.33;;;30.60;84.80;;;;;;2603524;54;20892;31
2022/08/10 10:19:29;;;;;;;4.10;1.50;;;30.60;85.90;;;;;;2603793;54;20027;31
2022/08/10 10:22:15;;;;;;;2.50;1.10;;;30.60;84.50;;;;;;2603665;54;20553;31
2022/08/10 10:24:54;;;;;;;2.60;1.25;;;30.60;83.30;;;;;;2603950;54;20056;31
2022/08/10 10:27:36;;;;;;;2.38;1.20;;;30.60;88.00;;;;;;2603510;54;20878;31
2022/08/10 10:30:12;;;;;;;7.10;1.10;;;30.80;86.10;;;;;;2720444;39;20610;31
2022/08/10 10:32:54;;;;;;;2.88;1.60;;;30.90;84.70;;;;;;2603484;54;20965;31
2022/08/10 10:35:36;;;;;;;2.30;1.50;;;30.90;84.10;;;;;;2603772;54;20027;31
2022/08/10 10:38:14;;;;;;;4.55;1.20;;;30.90;84.70;;;;;;2603370;54;20839;31
2022/08/10 10:40:55;;;;;;;1.60;1.10;;;30.80;82.20;;;;;;2603405;54;20818;31
2022/08/10 10:43:40;;;;;;;3.67;1.38;;;30.70;83.40;;;;;;2603410;54;20818;31
2022/08/10 10:46:24;;;;;;;3.45;1.40;;;30.60;82.60;;;;;;2603617;54;20033;31
2022/08/10 10:49:06;;;;;;;3.67;1.50;;;30.60;82.60;;;;;;2603157;54;20112;31
2022/08/10 10:51:43;;;;;;;3.30;1.25;;;30.70;83.40;;;;;;2622263;46;21122;31
2022/08/10 10:54:21;;;;;;;3.78;1.75;;;30.60;83.70;;;;;;2621739;46;20027;31
2022/08/10 10:57:03;;;;;;;2.40;1.50;;;30.40;82.60;;;;;;2603374;54;20044;31
2022/08/10 10:59:44;;;;;;;3.95;1.50;;;30.30;84.10;;;;;;2791979;31;20566;31
2022/08/10 11:02:45;;;;;;;4.85;1.55;;;30.30;83.50;;;;;;2603242;54;20954;31
2022/08/10 11:05:29;;;;;;;3.40;1.52;;;30.10;83.70;;;;;;2621843;46;20022;31
2022/08/10 11:08:05;;;;;;;3.85;1.50;;;30.00;83.30;;;;;;2603802;54;20823;31
2022/08/10 11:10:44;;;;;;;2.17;1.33;;;29.90;83.80;;;;;;2603390;54;21682;31
2022/08/10 11:13:33;;;;;;;2.45;1.70;;;29.90;83.50;;;;;;2603327;54;20026;31
2022/08/10 11:16:31;;;;;;;2.30;1.45;;;29.90;85.20;;;;;;2603503;54;20022;31
2022/08/10 11:19:14;;;;;;;3.25;1.30;;;29.90;85.10;;;;;;2622042;46;20834;31
2022/08/10 11:21:59;;;;;;;3.60;1.85;;;29.90;83.60;;;;;;2603337;54;20966;31
2022/08/10 11:24:39;;;;;;;10.20;1.80;;;29.80;86.80;;;;;;2603289;54;20089;31
2022/08/10 11:27:31;;;;;;;1.75;1.40;;;29.70;86.50;;;;;;2603315;54;20865;31
2022/08/10 11:30:10;;;;;;;9.90;2.70;;;29.70;85.10;;;;;;2603277;54;20869;31
2022/08/10 11:33:06;;;;;;;4.35;1.63;;;29.70;85.40;;;;;;2621593;47;19941;31
2022/08/10 11:35:47;;;;;;;2.25;1.40;;;29.80;85.60;;;;;;2621380;47;21907;31
2022/08/10 11:38:26;;;;;;;2.50;1.40;;;29.80;86.20;;;;;;2608424;47;20030;31
2022/08/10 11:41:15;;;;;;;2.47;1.40;;;29.60;85.50;;;;;;2603201;54;20573;31
2022/08/10 11:44:15;;;;;;;3.30;1.50;;;29.50;85.40;;;;;;2602966;54;20748;31
2022/08/10 11:46:58;;;;;;;2.73;1.43;;;29.30;84.70;;;;;;2603274;54;20026;31
2022/08/10 11:49:34;;;;;;;2.60;1.70;;;29.10;84.60;;;;;;2603336;54;20031;31
2022/08/10 11:52:12;;;;;;;2.30;1.57;;;28.80;85.90;;;;;;2603263;54;20026;31
2022/08/10 11:54:52;;;;;;;2.88;1.73;;;28.70;86.70;;;;;;2603260;54;20246;31
2022/08/10 11:57:30;;;;;;;2.47;1.60;;;28.70;86.50;;;;;;2603093;54;20037;31
2022/08/10 12:00:22;;;;;;;6.35;1.67;;;28.70;87.40;;;;;;2603250;54;21035;31
2022/08/10 12:03:01;;;;;;;6.90;1.90;;;28.80;88.10;;;;;;2603992;54;20026;31
2022/08/10 12:05:40;;;;;;;5.68;1.75;;;28.70;88.30;;;;;;2604177;54;20904;31
2022/08/10 12:08:28;;;;;;;3.60;1.47;;;28.80;84.30;;;;;;2604063;54;20089;31
2022/08/10 12:11:28;;;;;;;10.07;2.63;;;28.80;86.60;;;;;;2603989;54;21568;31
2022/08/10 12:16:59;;;;;;;6.35;1.60;;;28.70;84.60;;;;;;2604386;54;20878;31
2022/08/10 12:19:40;;;;;;;2.85;1.30;;;28.70;84.80;;;;;;2604071;54;20042;31
2022/08/10 12:22:40;;;;;;;24.45;2.35;;;28.60;85.40;;;;;;2702577;39;21014;31
2022/08/10 12:25:18;;;;;;;2.67;1.58;;;28.70;85.50;;;;;;2773851;31;20521;31
2022/08/10 12:28:20;;;;;;;3.10;1.30;;;28.80;85.20;;;;;;2604121;54;20837;31
2022/08/10 12:31:16;;;;;;;3.08;1.42;;;28.80;83.80;;;;;;2604034;54;20125;31
2022/08/10 12:33:53;;;;;;;1.95;1.65;;;28.80;85.50;;;;;;2603275;54;20030;31
2022/08/10 12:36:41;;;;;;;2.00;1.80;;;28.80;84.00;;;;;;2604123;54;20797;31
2022/08/10 12:39:18;;;;;;;14.38;1.80;;;28.80;85.10;;;;;;2622710;46;20027;31
2022/08/10 12:41:58;;;;;;;1.60;1.25;;;28.80;84.40;;;;;;2603944;54;21388;31
2022/08/10 12:44:36;;;;;;;2.85;1.20;;;28.80;83.90;;;;;;2603965;54;20045;31
2022/08/10 12:47:21;;;;;;;8.73;1.80;;;28.70;85.30;;;;;;2774091;31;20568;31
2022/08/10 12:49:59;;;;;;;1.85;1.10;;;28.70;84.90;;;;;;2603843;54;20022;31
2022/08/10 12:52:59;;;;;;;2.35;1.17;;;28.60;84.60;;;;;;2603756;54;20093;31
2022/08/10 12:55:46;;;;;;;2.95;1.40;;;28.50;84.00;;;;;;2604040;54;20026;31
2022/08/10 12:58:21;;;;;;;1.70;1.17;;;28.60;84.10;;;;;;2603845;54;20105;31
2022/08/10 13:01:16;;;;;;;1.70;1.20;;;28.50;83.10;;;;;;2604094;54;20026;31
2022/08/10 13:03:54;;;;;;;3.20;1.33;;;28.30;84.40;;;;;;2702381;39;20489;31
2022/08/10 13:06:51;;;;;;;5.93;0.95;;;28.40;84.80;;;;;;2603827;54;20876;31
2022/08/10 13:09:29;;;;;;;2.43;1.30;;;28.40;84.70;;;;;;2702324;39;20524;31
2022/08/10 13:12:06;;;;;;;3.58;1.30;;;28.30;83.40;;;;;;2603627;54;20581;31
2022/08/10 13:15:05;;;;;;;1.80;1.17;;;28.30;84.10;;;;;;2603725;54;21199;31
2022/08/10 13:18:01;;;;;;;4.50;1.33;;;28.30;84.10;;;;;;2603808;54;20856;31
2022/08/10 13:20:37;;;;;;;2.65;1.27;;;28.30;84.30;;;;;;2603838;54;20027;31
2022/08/10 13:23:14;;;;;;;2.55;1.30;;;28.20;84.70;;;;;;2603740;54;21766;31
2022/08/10 13:25:55;;;;;;;1.75;1.20;;;28.10;85.30;;;;;;2603725;54;20724;31
2022/08/10 13:28:41;;;;;;;5.15;1.35;;;28.00;85.10;;;;;;2622648;46;20031;31
2022/08/10 13:31:22;;;;;;;3.55;1.50;;;27.70;85.20;;;;;;2603773;54;20030;31
2022/08/10 13:34:23;;;;;;;2.80;1.45;;;27.60;85.60;;;;;;2603928;54;20027;31
2022/08/10 13:37:19;;;;;;;1.60;1.50;;;27.40;87.10;;;;;;2603725;54;20058;31
2022/08/10 13:39:57;;;;;;;10.00;1.63;;;27.40;86.70;;;;;;2622239;46;20027;31
2022/08/10 13:42:38;;;;;;;3.10;1.70;;;27.30;86.80;;;;;;2603590;54;20034;31
2022/08/10 13:45:17;;;;;;;3.03;1.38;;;27.30;87.00;;;;;;2621997;46;20120;31
2022/08/10 13:47:53;;;;;;;1.50;1.38;;;27.30;88.50;;;;;;2603625;54;19986;31
2022/08/10 13:50:30;;;;;;;1.97;1.30;;;27.30;87.00;;;;;;2603638;54;20062;31
2022/08/10 13:53:10;;;;;;;3.40;1.40;;;27.40;88.50;;;;;;2603643;54;20030;31
2022/08/10 13:55:51;;;;;;;6.00;1.65;;;27.40;87.30;;;;;;2621803;46;20173;31
2022/08/10 13:58:34;;;;;;;3.80;1.40;;;27.40;88.10;;;;;;2603658;54;20031;31
2022/08/10 14:01:12;;;;;;;1.60;1.00;;;27.50;87.70;;;;;;2721240;39;20453;31
2022/08/10 14:03:49;;;;;;;1.17;0.90;;;27.50;87.90;;;;;;2603517;54;20030;31
2022/08/10 14:06:24;;;;;;;;;;;27.50;86.10;;;;;;2622170;46;20026;31
2022/08/10 14:09:04;;;;;;;5.03;1.50;;;27.50;86.30;;;;;;2603885;54;19939;31
2022/08/10 14:11:41;;;;;;;3.25;1.40;;;27.50;86.60;;;;;;2603673;54;20782;31
2022/08/10 14:14:20;;;;;;;3.75;1.20;;;27.40;88.10;;;;;;2603615;54;20033;31
2022/08/10 14:16:55;;;;;;;19.73;2.83;;;27.40;85.60;;;;;;2603710;54;20038;31
2022/08/10 14:19:32;;;;;;;3.65;1.17;;;27.40;86.80;;;;;;2603553;54;20030;31
2022/08/10 14:22:10;;;;;;;3.90;1.40;;;27.40;86.70;;;;;;2603951;54;19935;31
2022/08/10 14:24:47;;;;;;;2.25;1.50;;;27.40;86.70;;;;;;2603470;54;20151;31
2022/08/10 14:30:42;;;;;;;1.67;1.10;;;27.50;87.40;;;;;;2603740;54;20038;31
2022/08/10 14:33:16;;;;;;;4.07;1.33;;;27.40;86.10;;;;;;2603499;54;20033;31